createdAt,value
2022-08-09T00:00:08.209Z,7.45
2022-08-09T00:02:49.187Z,4.70
2022-08-09T00:06:18.065Z,6.90
2022-08-09T00:08:10.031Z,6.70
2022-08-09T00:10:38.525Z,6.18
2022-08-09T00:13:17.278Z,9.57
2022-08-09T00:18:31.362Z,7.20
2022-08-09T00:21:05.090Z,5.50
2022-08-09T00:23:55.257Z,6.38
2022-08-09T00:26:29.741Z,6.28
2022-08-09T00:29:00.446Z,4.05
2022-08-09T00:31:58.209Z,8.65
2022-08-09T00:34:14.271Z,4.72
2022-08-09T00:36:42.099Z,4.80
2022-08-09T00:39:16.891Z,5.78
2022-08-09T00:44:14.879Z,6.53
2022-08-09T00:44:43.669Z,4.63
2022-08-09T00:47:15.419Z,6.93
2022-08-09T00:49:52.443Z,4.47
2022-08-09T00:52:19.682Z,4.57
2022-08-09T00:54:48.946Z,4.32
2022-08-09T00:57:24.736Z,5.30
2022-08-09T01:00:05.326Z,5.18
2022-08-09T01:02:49.799Z,5.45
2022-08-09T01:05:50.754Z,4.40
2022-08-09T01:09:00.212Z,7.40
2022-08-09T01:11:59.832Z,4.80
2022-08-09T01:14:42.696Z,3.95
2022-08-09T01:17:19.311Z,6.47
2022-08-09T01:20:06.265Z,8.45
2022-08-09T01:22:55.105Z,5.65
2022-08-09T01:25:37.492Z,7.40
2022-08-09T01:28:09.649Z,4.40
2022-08-09T01:30:51.876Z,5.60
2022-08-09T01:33:21.882Z,4.97
2022-08-09T01:35:53.675Z,5.68
2022-08-09T01:38:23.534Z,5.38
2022-08-09T01:41:05.768Z,6.57
2022-08-09T01:43:47.907Z,9.73
2022-08-09T01:46:31.730Z,5.70
2022-08-09T01:49:10.759Z,5.78
2022-08-09T01:51:42.872Z,4.75
2022-08-09T01:54:11.434Z,5.18
2022-08-09T01:56:40.332Z,6.70
2022-08-09T01:59:09.719Z,4.90
2022-08-09T02:01:59.576Z,5.32
2022-08-09T02:04:24.383Z,5.57
2022-08-09T02:07:15.429Z,5.70
2022-08-09T02:09:59.868Z,6.47
2022-08-09T02:12:30.843Z,6.05
2022-08-09T02:14:59.404Z,6.13
2022-08-09T02:17:59.507Z,7.18
2022-08-09T02:20:15.799Z,6.38
2022-08-09T02:23:09.034Z,6.00
2022-08-09T02:25:42.238Z,4.70
2022-08-09T02:28:17.786Z,4.78
2022-08-09T02:30:47.771Z,4.88
2022-08-09T02:33:20.205Z,5.97
2022-08-09T02:36:02.902Z,5.93
2022-08-09T02:38:34.892Z,8.32
2022-08-09T02:41:13.607Z,5.97
2022-08-09T02:43:54.663Z,5.70
2022-08-09T02:46:23.973Z,6.75
2022-08-09T02:48:51.360Z,4.43
2022-08-09T02:51:18.823Z,5.50
2022-08-09T02:54:00.786Z,7.18
2022-08-09T02:56:28.505Z,5.80
2022-08-09T02:58:55.356Z,5.25
2022-08-09T03:01:29.290Z,4.90
2022-08-09T03:04:17.940Z,5.28
2022-08-09T03:06:46.114Z,4.88
2022-08-09T03:09:16.396Z,6.40
2022-08-09T03:12:10.443Z,5.03
2022-08-09T03:14:32.030Z,5.13
2022-08-09T03:17:01.496Z,6.57
2022-08-09T03:19:57.860Z,5.93
2022-08-09T03:22:25.666Z,7.43
2022-08-09T03:25:21.381Z,5.25
2022-08-09T03:27:51.987Z,5.50
2022-08-09T03:30:30.083Z,4.73
2022-08-09T03:33:05.724Z,5.40
2022-08-09T03:36:11.427Z,5.32
2022-08-09T03:38:30.712Z,6.50
2022-08-09T03:40:58.176Z,5.53
2022-08-09T03:43:25.418Z,5.70
2022-08-09T03:46:03.912Z,5.47
2022-08-09T03:48:51.248Z,5.15
2022-08-09T03:51:43.638Z,4.80
2022-08-09T03:54:10.862Z,6.05
2022-08-09T03:56:41.383Z,6.63
2022-08-09T03:59:13.640Z,5.13
2022-08-09T04:01:44.245Z,6.63
2022-08-09T04:04:14.645Z,6.88
2022-08-09T04:06:44.051Z,5.30
2022-08-09T04:09:41.810Z,4.97
2022-08-09T04:12:30.639Z,5.00
2022-08-09T04:15:02.435Z,5.47
2022-08-09T04:17:42.417Z,5.88
2022-08-09T04:20:11.541Z,6.80
2022-08-09T04:22:41.276Z,4.53
2022-08-09T04:25:11.319Z,6.75
2022-08-09T04:27:41.513Z,4.50
2022-08-09T04:30:13.733Z,4.75
2022-08-09T04:32:41.204Z,6.05
2022-08-09T04:35:13.904Z,7.10
2022-08-09T04:37:46.221Z,7.80
2022-08-09T04:40:28.582Z,5.05
2022-08-09T04:43:00.420Z,5.88
2022-08-09T04:45:28.406Z,4.82
2022-08-09T04:48:04.063Z,6.78
2022-08-09T04:50:37.583Z,6.80
2022-08-09T04:53:13.153Z,7.43
2022-08-09T04:55:58.077Z,4.95
2022-08-09T04:58:27.130Z,7.82
2022-08-09T05:00:54.701Z,7.15
2022-08-09T05:03:40.498Z,6.82
2022-08-09T05:06:08.923Z,7.10
2022-08-09T05:08:35.937Z,5.47
2022-08-09T05:11:03.263Z,5.78
2022-08-09T05:13:33.919Z,5.40
2022-08-09T05:16:05.595Z,6.57
2022-08-09T05:18:38.429Z,7.47
2022-08-09T05:21:24.641Z,5.78
2022-08-09T05:23:58.530Z,5.40
2022-08-09T05:26:36.079Z,5.07
2022-08-09T05:29:04.638Z,5.50
2022-08-09T05:31:44.417Z,6.93
2022-08-09T05:34:16.605Z,6.20
2022-08-09T05:36:47.082Z,8.45
2022-08-09T05:39:28.245Z,6.47
2022-08-09T05:41:55.619Z,7.25
2022-08-09T05:44:29.148Z,5.32
2022-08-09T05:47:00.237Z,5.22
2022-08-09T05:50:30.612Z,6.70
2022-08-09T05:52:14.302Z,6.50
2022-08-09T05:54:42.315Z,6.43
2022-08-09T05:57:12.847Z,6.30
2022-08-09T05:59:44.277Z,7.75
2022-08-09T06:02:12.276Z,9.90
2022-08-09T06:04:44.531Z,9.88
2022-08-09T06:07:21.396Z,13.25
2022-08-09T06:09:54.690Z,11.55
2022-08-09T06:12:29.388Z,20.95
2022-08-09T06:15:00.714Z,17.25
2022-08-09T06:17:39.888Z,17.30
2022-08-09T06:20:08.348Z,16.45
2022-08-09T06:22:35.826Z,15.02
2022-08-09T06:25:03.689Z,16.40
2022-08-09T06:27:42.491Z,20.63
2022-08-09T06:30:10.951Z,25.80
2022-08-09T06:33:00.559Z,17.77
2022-08-09T06:35:35.691Z,20.13
2022-08-09T06:38:15.993Z,15.50
2022-08-09T06:40:43.283Z,14.43
2022-08-09T06:43:10.705Z,19.00
2022-08-09T06:46:05.072Z,17.38
2022-08-09T06:48:26.105Z,17.23
2022-08-09T06:50:59.111Z,17.27
2022-08-09T06:53:25.991Z,16.48
2022-08-09T06:55:53.300Z,19.15
2022-08-09T06:58:40.687Z,18.23
2022-08-09T07:01:07.902Z,19.95
2022-08-09T07:03:39.777Z,16.65
2022-08-09T07:06:20.214Z,13.93
2022-08-09T07:08:49.750Z,18.23
2022-08-09T07:11:17.645Z,14.95
2022-08-09T07:14:05.733Z,21.35
2022-08-09T07:16:42.130Z,17.85
2022-08-09T07:19:23.031Z,24.58
2022-08-09T07:21:57.407Z,19.00
2022-08-09T07:24:32.425Z,23.92
2022-08-09T07:27:10.970Z,15.40
2022-08-09T07:29:57.236Z,22.90
2022-08-09T07:32:33.107Z,24.15
2022-08-09T07:35:11.944Z,22.15
2022-08-09T07:37:45.267Z,16.08
2022-08-09T07:40:17.165Z,23.55
2022-08-09T07:42:59.093Z,20.92
2022-08-09T07:45:37.319Z,17.52
2022-08-09T07:48:06.567Z,26.60
2022-08-09T07:50:36.374Z,17.85
2022-08-09T07:53:04.865Z,17.33
2022-08-09T07:55:41.448Z,16.73
2022-08-09T07:58:19.388Z,14.38
2022-08-09T08:00:58.856Z,16.35
2022-08-09T08:03:36.742Z,17.05
2022-08-09T08:06:04.643Z,12.82
2022-08-09T08:08:59.895Z,17.83
2022-08-09T08:12:25.026Z,14.15
2022-08-09T08:14:06.473Z,16.88
2022-08-09T08:16:34.544Z,15.85
2022-08-09T08:19:03.083Z,13.55
2022-08-09T08:21:31.233Z,13.98
2022-08-09T08:24:01.473Z,17.42
2022-08-09T08:26:41.816Z,10.40
2022-08-09T08:29:28.049Z,8.73
2022-08-09T08:32:03.847Z,6.97
2022-08-09T08:34:33.440Z,11.65
2022-08-09T08:37:01.469Z,8.13
2022-08-09T08:39:28.653Z,8.85
2022-08-09T08:41:58.775Z,11.05
2022-08-09T08:44:28.908Z,12.27
2022-08-09T08:47:02.250Z,8.27
2022-08-09T08:49:47.265Z,7.82
2022-08-09T08:55:06.693Z,8.77
2022-08-09T08:57:34.965Z,9.48
2022-08-09T09:00:12.734Z,8.75
2022-08-09T09:02:52.550Z,7.93
2022-08-09T09:05:33.036Z,7.35
2022-08-09T09:08:30.098Z,7.40
2022-08-09T09:10:59.604Z,10.30
2022-08-09T09:13:41.541Z,8.70
2022-08-09T09:16:09.418Z,7.22
2022-08-09T09:18:36.708Z,7.80
2022-08-09T09:21:06.338Z,7.95
2022-08-09T09:23:49.700Z,6.00
2022-08-09T09:26:26.125Z,6.50
2022-08-09T09:29:03.556Z,9.00
2022-08-09T09:32:06.163Z,7.53
2022-08-09T09:34:24.995Z,5.25
2022-08-09T09:36:56.351Z,6.60
2022-08-09T09:39:55.121Z,7.45
2022-08-09T09:42:25.524Z,13.68
2022-08-09T09:44:57.848Z,4.65
2022-08-09T09:47:25.544Z,9.25
2022-08-09T09:50:14.832Z,7.53
2022-08-09T09:52:54.465Z,9.23
2022-08-09T09:55:32.089Z,7.40
2022-08-09T09:58:17.932Z,7.00
2022-08-09T10:01:04.829Z,8.02
2022-08-09T10:03:56.305Z,6.05
2022-08-09T10:06:31.938Z,11.73
2022-08-09T10:09:01.298Z,8.43
2022-08-09T10:11:59.696Z,5.97
2022-08-09T10:14:36.171Z,8.03
2022-08-09T10:17:40.389Z,6.60
2022-08-09T10:20:00.613Z,6.00
2022-08-09T10:22:41.072Z,4.68
2022-08-09T10:25:12.006Z,7.70
2022-08-09T10:27:55.943Z,7.30
2022-08-09T10:32:11.868Z,4.00
2022-08-09T10:33:29.966Z,13.80
2022-08-09T10:36:00.823Z,13.43
2022-08-09T10:38:54.476Z,6.05
2022-08-09T10:41:16.713Z,5.65
2022-08-09T10:47:00.730Z,5.60
2022-08-09T10:49:51.051Z,5.55
2022-08-09T10:52:33.635Z,6.30
2022-08-09T10:55:24.092Z,7.68
2022-08-09T10:57:51.952Z,3.65
2022-08-09T11:00:31.631Z,13.18
2022-08-09T11:03:14.371Z,5.45
2022-08-09T11:06:18.635Z,8.43
2022-08-09T11:08:51.241Z,11.93
2022-08-09T11:11:20.210Z,8.35
2022-08-09T11:13:53.821Z,5.78
2022-08-09T11:16:39.024Z,6.97
2022-08-09T11:19:10.898Z,6.05
2022-08-09T11:22:10.836Z,6.38
2022-08-09T11:25:04.484Z,5.45
2022-08-09T11:28:04.976Z,4.40
2022-08-09T11:30:32.564Z,8.80
2022-08-09T11:33:11.189Z,6.53
2022-08-09T11:36:07.920Z,5.73
2022-08-09T11:38:41.561Z,7.80
2022-08-09T11:41:13.021Z,6.43
2022-08-09T11:43:48.946Z,4.72
2022-08-09T11:46:18.637Z,8.00
2022-08-09T11:48:59.885Z,3.78
2022-08-09T11:52:56.796Z,5.22
2022-08-09T11:54:28.802Z,4.15
2022-08-09T11:57:47.649Z,4.28
2022-08-09T12:00:28.111Z,6.70
2022-08-09T12:02:56.581Z,7.15
2022-08-09T12:05:39.506Z,7.50
2022-08-09T12:08:12.433Z,3.83
2022-08-09T12:10:54.664Z,10.88
2022-08-09T12:14:09.439Z,5.85
2022-08-09T12:16:38.097Z,5.13
2022-08-09T12:19:09.197Z,5.50
2022-08-09T12:21:51.522Z,6.18
2022-08-09T12:24:23.927Z,4.90
2022-08-09T12:29:12.310Z,5.97
2022-08-09T12:29:52.267Z,5.30
2022-08-09T12:32:26.986Z,9.75
2022-08-09T12:34:58.130Z,7.68
2022-08-09T12:37:50.478Z,7.80
2022-08-09T12:40:19.241Z,7.57
2022-08-09T12:42:46.134Z,6.40
2022-08-09T12:45:33.416Z,6.18
2022-08-09T12:48:04.461Z,8.88
2022-08-09T12:50:31.697Z,8.55
2022-08-09T12:53:18.010Z,6.00
2022-08-09T12:56:14.580Z,6.10
2022-08-09T12:58:34.011Z,11.60
2022-08-09T13:01:04.590Z,8.30
2022-08-09T13:03:54.116Z,6.00
2022-08-09T13:06:34.213Z,4.78
2022-08-09T13:09:24.158Z,6.95
2022-08-09T13:12:02.150Z,4.25
2022-08-09T13:14:40.760Z,7.00
2022-08-09T13:17:43.894Z,7.38
2022-08-09T13:20:14.394Z,9.05
2022-08-09T13:23:05.583Z,8.63
2022-08-09T13:25:42.588Z,9.30
2022-08-09T13:28:11.298Z,6.28
2022-08-09T13:31:11.757Z,4.75
2022-08-09T13:33:51.593Z,4.38
2022-08-09T13:36:39.605Z,6.78
2022-08-09T13:41:31.116Z,8.90
2022-08-09T13:42:03.838Z,9.63
2022-08-09T13:44:31.098Z,6.55
2022-08-09T13:47:25.514Z,8.85
2022-08-09T13:49:58.270Z,8.73
2022-08-09T13:52:30.461Z,5.40
2022-08-09T13:55:00.529Z,7.18
2022-08-09T13:57:35.591Z,6.47
2022-08-09T14:00:15.832Z,8.18
2022-08-09T14:03:16.558Z,6.53
2022-08-09T14:05:58.732Z,5.95
2022-08-09T14:08:23.298Z,10.30
2022-08-09T14:10:52.487Z,6.03
2022-08-09T14:14:16.103Z,5.20
2022-08-09T14:16:11.453Z,11.32
2022-08-09T14:18:43.203Z,4.47
2022-08-09T14:21:17.564Z,9.95
2022-08-09T14:23:54.804Z,12.98
2022-08-09T14:26:33.767Z,8.07
2022-08-09T14:29:07.875Z,13.73
2022-08-09T14:31:54.115Z,3.47
2022-08-09T14:34:30.854Z,5.53
2022-08-09T14:37:06.633Z,6.10
2022-08-09T14:39:40.174Z,8.43
2022-08-09T14:42:12.285Z,7.80
2022-08-09T14:44:59.088Z,6.78
2022-08-09T14:47:41.240Z,10.20
2022-08-09T14:50:13.076Z,5.15
2022-08-09T14:52:43.250Z,8.68
2022-08-09T14:55:20.485Z,6.78
2022-08-09T14:57:48.976Z,8.35
2022-08-09T15:00:16.500Z,5.63
2022-08-09T15:02:47.206Z,9.45
2022-08-09T15:05:16.238Z,3.63
2022-08-09T15:07:45.318Z,6.68
2022-08-09T15:10:14.516Z,3.20
2022-08-09T15:12:45.084Z,8.77
2022-08-09T15:15:13.223Z,4.70
2022-08-09T15:17:42.593Z,4.50
2022-08-09T15:20:15.367Z,3.78
2022-08-09T15:24:06.142Z,2.92
2022-08-09T15:25:53.903Z,5.78
2022-08-09T15:28:27.593Z,9.32
2022-08-09T15:31:02.009Z,8.40
2022-08-09T15:34:17.784Z,8.63
2022-08-09T15:36:25.474Z,4.13
2022-08-09T15:38:56.454Z,7.90
2022-08-09T15:41:23.442Z,5.35
2022-08-09T15:44:00.421Z,3.92
2022-08-09T15:46:33.278Z,4.32
2022-08-09T15:49:21.686Z,5.50
2022-08-09T15:52:03.375Z,11.38
2022-08-09T15:54:44.665Z,3.00
2022-08-09T15:57:19.061Z,6.53
2022-08-09T16:00:00.872Z,7.18
2022-08-09T16:02:27.971Z,7.63
2022-08-09T16:04:54.920Z,6.13
2022-08-09T16:07:21.805Z,9.05
2022-08-09T16:10:02.353Z,10.80
2022-08-09T16:12:33.011Z,8.40
2022-08-09T16:15:00.968Z,10.90
2022-08-09T16:17:28.695Z,4.80
2022-08-09T16:20:04.570Z,6.28
2022-08-09T16:22:36.772Z,5.10
2022-08-09T16:25:10.147Z,5.45
2022-08-09T16:27:37.710Z,3.20
2022-08-09T16:30:15.058Z,7.43
2022-08-09T16:33:11.428Z,3.85
2022-08-09T16:35:56.843Z,4.60
2022-08-09T16:38:26.166Z,8.17
2022-08-09T16:40:53.107Z,3.67
2022-08-09T16:43:20.863Z,4.55
2022-08-09T16:45:48.221Z,2.83
2022-08-09T16:48:50.855Z,2.92
2022-08-09T16:51:14.081Z,6.83
2022-08-09T16:54:25.265Z,3.25
2022-08-09T16:56:32.152Z,7.68
2022-08-09T16:59:01.063Z,3.67
2022-08-09T17:01:34.088Z,5.53
2022-08-09T17:04:03.567Z,4.45
2022-08-09T17:06:33.763Z,3.88
2022-08-09T17:09:45.671Z,4.55
2022-08-09T17:12:06.789Z,4.38
2022-08-09T17:14:36.314Z,3.40
2022-08-09T17:17:03.664Z,2.63
2022-08-09T17:19:47.384Z,4.25
2022-08-09T17:22:31.566Z,3.47
2022-08-09T17:25:02.729Z,3.10
2022-08-09T17:27:34.272Z,3.60
2022-08-09T17:30:07.155Z,5.78
2022-08-09T17:32:44.324Z,4.32
2022-08-09T17:35:13.779Z,2.97
2022-08-09T17:38:12.603Z,3.50
2022-08-09T17:40:29.865Z,3.30
2022-08-09T17:42:59.184Z,10.75
2022-08-09T17:45:37.539Z,3.83
2022-08-09T17:48:15.600Z,4.50
2022-08-09T17:50:56.064Z,6.32
2022-08-09T17:53:23.587Z,9.35
2022-08-09T17:55:55.715Z,5.50
2022-08-09T17:58:27.413Z,4.03
2022-08-09T18:00:56.630Z,5.30
2022-08-09T18:03:25.386Z,3.97
2022-08-09T18:05:53.208Z,5.07
2022-08-09T18:08:21.791Z,2.77
2022-08-09T18:11:02.067Z,7.10
2022-08-09T18:13:38.728Z,3.30
2022-08-09T18:16:17.508Z,6.77
2022-08-09T18:18:56.907Z,4.88
2022-08-09T18:21:24.377Z,4.88
2022-08-09T18:24:10.270Z,3.65
2022-08-09T18:26:45.865Z,6.28
2022-08-09T18:30:39.884Z,9.15
2022-08-09T18:32:00.329Z,9.13
2022-08-09T18:34:31.670Z,12.63
2022-08-09T18:36:58.865Z,10.63
2022-08-09T18:39:25.958Z,11.05
2022-08-09T18:42:08.923Z,8.85
2022-08-09T18:44:36.088Z,6.95
2022-08-09T18:47:07.551Z,4.80
2022-08-09T18:49:43.539Z,4.95
2022-08-09T18:52:14.354Z,8.57
2022-08-09T18:54:49.702Z,6.70
2022-08-09T18:57:22.232Z,8.60
2022-08-09T18:59:55.278Z,5.68
2022-08-09T19:02:31.758Z,5.22
2022-08-09T19:05:03.970Z,7.35
2022-08-09T19:07:59.222Z,5.93
2022-08-09T19:10:37.126Z,6.70
2022-08-09T19:13:23.130Z,8.30
2022-08-09T19:15:56.348Z,6.50
2022-08-09T19:18:33.504Z,6.35
2022-08-09T19:21:09.530Z,3.78
2022-08-09T19:24:37.397Z,6.07
2022-08-09T19:26:31.141Z,4.50
2022-08-09T19:29:01.558Z,7.25
2022-08-09T19:31:43.997Z,4.47
2022-08-09T19:34:21.922Z,5.00
2022-08-09T19:36:51.293Z,3.63
2022-08-09T19:39:20.865Z,2.97
2022-08-09T19:42:07.040Z,3.05
2022-08-09T19:44:34.143Z,6.13
2022-08-09T19:47:01.811Z,7.00
2022-08-09T19:50:09.444Z,3.25
2022-08-09T19:52:16.000Z,3.65
2022-08-09T19:57:12.433Z,5.63
2022-08-09T20:00:06.777Z,5.38
2022-08-09T20:04:09.844Z,7.28
2022-08-09T20:05:16.631Z,4.03
2022-08-09T20:07:59.618Z,7.38
2022-08-09T20:10:34.374Z,3.92
2022-08-09T20:13:02.480Z,4.82
2022-08-09T20:16:32.902Z,4.40
2022-08-09T20:18:18.845Z,5.30
2022-08-09T20:20:46.971Z,7.90
2022-08-09T20:23:14.370Z,7.50
2022-08-09T20:25:51.962Z,7.30
2022-08-09T20:28:31.961Z,4.67
2022-08-09T20:31:11.152Z,5.53
2022-08-09T20:33:43.983Z,3.88
2022-08-09T20:36:11.733Z,7.13
2022-08-09T20:39:07.229Z,6.97
2022-08-09T20:41:32.088Z,4.80
2022-08-09T20:44:02.822Z,10.63
2022-08-09T20:46:33.950Z,4.88
2022-08-09T20:49:10.461Z,5.75
2022-08-09T20:51:41.548Z,4.90
2022-08-09T20:54:12.710Z,6.78
2022-08-09T20:56:49.647Z,5.38
2022-08-09T20:59:50.264Z,3.47
2022-08-09T21:02:08.866Z,6.43
2022-08-09T21:05:52.069Z,6.55
2022-08-09T21:07:30.090Z,4.45
2022-08-09T21:10:06.355Z,4.97
2022-08-09T21:12:35.276Z,4.80
2022-08-09T21:15:02.770Z,5.30
2022-08-09T21:18:21.807Z,4.90
2022-08-09T21:20:22.581Z,4.75
2022-08-09T21:22:54.478Z,4.75
2022-08-09T21:25:44.105Z,4.20
2022-08-09T21:28:35.042Z,6.65
2022-08-09T21:31:17.118Z,5.60
2022-08-09T21:33:51.316Z,5.68
2022-08-09T21:36:25.939Z,5.57
2022-08-09T21:38:57.535Z,3.55
2022-08-09T21:42:04.787Z,5.20
2022-08-09T21:44:32.816Z,4.07
2022-08-09T21:47:03.845Z,4.80
2022-08-09T21:49:39.858Z,3.33
2022-08-09T21:52:14.724Z,9.47
2022-08-09T21:54:51.001Z,6.15
2022-08-09T21:57:37.866Z,3.85
2022-08-09T22:00:26.735Z,6.35
2022-08-09T22:02:59.908Z,5.40
2022-08-09T22:05:35.728Z,5.78
2022-08-09T22:08:05.184Z,9.65
2022-08-09T22:10:33.188Z,6.78
2022-08-09T22:13:07.534Z,12.98
2022-08-09T22:15:38.584Z,7.28
2022-08-09T22:18:12.135Z,9.27
2022-08-09T22:20:40.191Z,5.88
2022-08-09T22:23:10.645Z,5.80
2022-08-09T22:26:08.689Z,6.88
2022-08-09T22:28:32.598Z,4.57
2022-08-09T22:31:00.459Z,7.43
2022-08-09T22:33:37.601Z,8.15
2022-08-09T22:36:14.255Z,7.68
2022-08-09T22:38:46.574Z,7.97
2022-08-09T22:41:13.447Z,8.20
2022-08-09T22:44:03.023Z,8.73
2022-08-09T22:48:12.247Z,8.23
2022-08-09T22:49:14.334Z,7.97
2022-08-09T22:51:49.271Z,10.02
2022-08-09T22:54:21.232Z,9.77
2022-08-09T22:56:54.592Z,6.63
2022-08-09T22:59:57.101Z,9.90
2022-08-09T23:02:10.915Z,5.75
2022-08-09T23:04:42.509Z,8.13
2022-08-09T23:07:31.106Z,8.63
2022-08-09T23:10:16.125Z,8.63
2022-08-09T23:12:43.237Z,8.55
2022-08-09T23:15:10.552Z,8.73
2022-08-09T23:17:37.457Z,9.48
2022-08-09T23:20:07.981Z,6.30
2022-08-09T23:22:35.887Z,7.57
2022-08-09T23:25:06.366Z,6.88
2022-08-09T23:27:33.467Z,8.07
2022-08-09T23:30:00.551Z,7.07
2022-08-09T23:32:27.479Z,6.22
2022-08-09T23:34:54.393Z,5.57
2022-08-09T23:37:21.420Z,10.18
2022-08-09T23:39:49.877Z,11.17
2022-08-09T23:42:16.741Z,9.88
2022-08-09T23:44:43.691Z,8.45
2022-08-09T23:47:10.578Z,8.85
2022-08-09T23:49:37.410Z,8.45
2022-08-09T23:52:04.763Z,8.43
2022-08-09T23:54:31.680Z,7.30
2022-08-09T23:56:59.098Z,8.48
2022-08-09T23:59:46.524Z,8.55
